Time;durP1;ratioP1;P1;durP2;ratioP2;P2;SDS_P1;SDS_P2;PMS_P1;PMS_P2;Temp;Humidity;BMP_temperature;BMP_pressure;BME280_temperature;BME280_humidity;BME280_pressure;Samples;Min_cycle;Max_cycle;Signal;HPM_P1;HPM_P2
2022/01/02 00:00:45;;;;;;;7.45;3.97;;;;;;;12.02;65.34;100814.03;4241054;33;34724;-84
2022/01/02 00:03:34;;;;;;;7.90;4.75;;;;;;;11.79;66.38;100801.53;4241307;33;35800;-84
2022/01/02 00:06:25;;;;;;;4.57;3.28;;;;;;;11.69;66.63;100797.44;4240050;33;35189;-84
2022/01/02 00:09:15;;;;;;;6.65;3.85;;;;;;;11.78;66.62;100798.00;4241703;33;34640;-84
2022/01/02 00:12:10;;;;;;;7.78;3.67;;;;;;;11.82;66.40;100796.16;4248116;33;35429;-85
2022/01/02 00:14:58;;;;;;;5.12;3.78;;;;;;;11.84;66.35;100796.97;4239974;33;34873;-84
2022/01/02 00:17:45;;;;;;;8.02;3.90;;;;;;;11.77;66.28;100793.63;4243297;33;34291;-85
2022/01/02 00:20:43;;;;;;;7.57;4.32;;;;;;;11.69;66.89;100789.50;4238906;33;35592;-84
2022/01/02 00:23:33;;;;;;;7.65;3.97;;;;;;;12.19;65.25;100784.31;4241589;33;34701;-84
2022/01/02 00:26:24;;;;;;;8.75;4.20;;;;;;;11.92;65.73;100791.44;4250462;33;34464;-85
2022/01/02 00:29:12;;;;;;;6.03;4.12;;;;;;;11.82;65.99;100796.16;4250383;33;34323;-84
2022/01/02 00:31:58;;;;;;;8.18;3.95;;;;;;;11.51;66.66;100794.47;4241852;33;37246;-84
2022/01/02 00:34:50;;;;;;;6.82;3.47;;;;;;;11.81;65.63;100794.38;4238614;33;34664;-84
2022/01/02 00:37:39;;;;;;;6.10;3.55;;;;;;;11.76;65.63;100793.66;4248645;33;34562;-84
2022/01/02 00:40:25;;;;;;;5.87;3.30;;;;;;;11.70;65.13;100794.75;4246980;33;35252;-84
2022/01/02 00:43:13;;;;;;;6.70;4.00;;;;;;;11.96;64.61;100793.94;4242291;33;35290;-84
2022/01/02 00:46:04;;;;;;;8.35;3.62;;;;;;;11.98;64.64;100797.38;4252844;33;34289;-84
2022/01/02 00:48:56;;;;;;;12.05;4.25;;;;;;;11.76;65.21;100793.66;4242584;33;35413;-83
2022/01/02 00:51:49;;;;;;;6.10;3.87;;;;;;;11.42;66.83;100792.09;4250038;33;33934;-84
2022/01/02 00:54:37;;;;;;;5.43;3.70;;;;;;;11.47;67.08;100799.91;4241625;33;34373;-84
2022/01/02 00:57:31;;;;;;;5.60;3.62;;;;;;;11.80;65.80;100790.88;4250177;33;34546;-83
2022/01/02 01:00:17;;;;;;;7.28;3.47;;;;;;;11.77;65.78;100804.22;4243812;33;34844;-83
2022/01/02 01:03:08;;;;;;;6.22;3.42;;;;;;;11.74;65.72;100799.03;4250657;33;35308;-83
2022/01/02 01:05:57;;;;;;;9.77;3.87;;;;;;;11.61;65.94;100792.38;4243519;33;34218;-83
2022/01/02 01:08:43;;;;;;;5.68;3.83;;;;;;;11.44;66.31;100792.94;4241692;33;34213;-83
2022/01/02 01:11:30;;;;;;;6.70;3.70;;;;;;;11.28;66.47;100792.53;4242727;33;34593;-82
2022/01/02 01:14:16;;;;;;;8.25;4.22;;;;;;;11.54;65.65;100790.88;4241244;33;34088;-83
2022/01/02 01:17:03;;;;;;;4.80;3.47;;;;;;;11.61;65.28;100786.25;4240659;33;34658;-83
2022/01/02 01:19:51;;;;;;;6.05;3.75;;;;;;;11.54;65.25;100791.72;4244120;33;34697;-83
2022/01/02 01:22:40;;;;;;;6.25;3.72;;;;;;;11.48;65.63;100789.25;4242245;33;34771;-83
2022/01/02 01:25:27;;;;;;;5.50;4.07;;;;;;;11.18;66.28;100784.94;4240859;33;35138;-84
2022/01/02 01:28:15;;;;;;;8.82;4.18;;;;;;;11.78;64.76;100791.84;4253123;33;34254;-84
2022/01/02 01:31:02;;;;;;;4.90;3.33;;;;;;;11.36;66.40;100792.31;4243301;33;34288;-84
2022/01/02 01:33:49;;;;;;;4.78;3.00;;;;;;;11.45;65.43;100786.72;4252983;33;34839;-84
2022/01/02 01:36:35;;;;;;;9.07;3.83;;;;;;;11.62;65.08;100787.97;4243149;33;35254;-83
2022/01/02 01:39:21;;;;;;;5.28;3.30;;;;;;;11.45;65.48;100784.09;4242312;33;35137;-82
2022/01/02 01:42:11;;;;;;;7.12;3.47;;;;;;;11.12;66.87;100783.34;4244033;33;34720;-83
2022/01/02 01:48:20;;;;;;;5.95;3.47;;;;;;;11.38;65.83;100777.25;4217413;33;33968;-83
2022/01/02 01:51:07;;;;;;;5.30;3.28;;;;;;;11.56;65.56;100785.53;4243523;33;35484;-82
2022/01/02 01:53:53;;;;;;;5.70;3.30;;;;;;;11.46;65.57;100780.53;4240514;33;35734;-82
2022/01/02 01:56:40;;;;;;;8.25;4.15;;;;;;;11.61;65.08;100781.81;4237039;33;35771;-83
2022/01/02 01:59:26;;;;;;;10.18;4.62;;;;;;;11.61;64.61;100773.00;4239819;33;34942;-82
2022/01/02 02:02:15;;;;;;;5.53;3.70;;;;;;;11.57;64.80;100774.88;4239400;33;34706;-83
2022/01/02 02:05:02;;;;;;;4.68;3.30;;;;;;;11.45;65.07;100772.66;4240426;33;34632;-83
2022/01/02 02:07:49;;;;;;;5.37;3.28;;;;;;;11.40;65.05;100779.87;4241583;33;34413;-83
2022/01/02 02:10:40;;;;;;;6.85;3.83;;;;;;;11.64;64.07;100776.44;4251204;33;33931;-83
2022/01/02 02:13:26;;;;;;;8.60;3.65;;;;;;;11.56;64.14;100777.59;4250473;33;34685;-83
2022/01/02 02:16:13;;;;;;;6.82;3.42;;;;;;;11.54;64.08;100783.81;4240863;33;35773;-83
2022/01/02 02:18:59;;;;;;;9.82;4.20;;;;;;;11.51;63.83;100781.25;4241283;33;33778;-83
2022/01/02 02:21:47;;;;;;;6.00;3.53;;;;;;;11.18;65.03;100782.28;4240377;33;34232;-83
2022/01/02 02:24:33;;;;;;;5.35;3.50;;;;;;;11.13;65.18;100773.63;4244422;33;34291;-83
2022/01/02 02:27:24;;;;;;;6.40;3.28;;;;;;;11.27;64.99;100782.00;4243392;33;34486;-83
2022/01/02 02:30:10;;;;;;;6.93;3.50;;;;;;;11.05;65.10;100771.22;4243071;33;34337;-83
2022/01/02 02:32:57;;;;;;;9.02;3.40;;;;;;;10.88;65.44;100774.38;4241564;33;34397;-83
2022/01/02 02:35:46;;;;;;;6.55;3.17;;;;;;;10.79;66.15;100777.28;4239203;33;34482;-83
2022/01/02 02:38:33;;;;;;;7.57;3.45;;;;;;;10.67;66.23;100769.69;4248466;33;34782;-82
2022/01/02 02:41:19;;;;;;;7.20;4.55;;;;;;;10.64;66.44;100777.72;4243862;33;34517;-82
2022/01/02 02:44:16;;;;;;;6.35;3.83;;;;;;;10.59;66.19;100763.78;4250925;33;34408;-83
2022/01/02 02:50:07;;;;;;;6.20;3.45;;;;;;;10.46;66.95;100755.34;4242781;33;34870;-83
2022/01/02 02:52:55;;;;;;;3.80;3.20;;;;;;;10.66;66.17;100757.41;4253215;33;34898;-83
2022/01/02 02:55:47;;;;;;;8.73;5.03;;;;;;;10.71;66.77;100756.38;4244721;33;34379;-83
2022/01/02 03:01:24;;;;;;;6.75;3.90;;;;;;;10.79;66.23;100768.50;4255080;33;35810;-83
2022/01/02 03:04:11;;;;;;;8.50;4.32;;;;;;;10.61;66.61;100761.97;4241190;33;35653;-83
2022/01/02 03:06:57;;;;;;;9.18;4.03;;;;;;;10.57;66.86;100762.97;4242909;33;34381;-83
2022/01/02 03:09:49;;;;;;;6.15;4.10;;;;;;;10.49;67.42;100755.22;4250565;33;34173;-83
2022/01/02 03:12:35;;;;;;;4.43;3.33;;;;;;;10.44;67.76;100750.13;4239503;33;34725;-83
2022/01/02 03:15:22;;;;;;;7.28;4.20;;;;;;;10.52;67.45;100740.19;4253596;33;35405;-85
2022/01/02 03:18:09;;;;;;;7.62;4.47;;;;;;;10.45;67.72;100746.56;4241090;33;34261;-85
2022/01/02 03:20:55;;;;;;;6.37;3.83;;;;;;;10.62;67.93;100750.47;4241579;33;35354;-85
2022/01/02 03:23:42;;;;;;;11.60;4.53;;;;;;;10.94;66.22;100737.19;4240738;33;35329;-86
2022/01/02 03:26:28;;;;;;;8.43;4.47;;;;;;;10.56;66.71;100732.19;4251371;33;35738;-84
2022/01/02 03:29:15;;;;;;;7.70;4.82;;;;;;;10.50;67.12;100736.72;4242634;33;33797;-83
2022/01/02 03:32:01;;;;;;;9.38;4.78;;;;;;;10.37;67.58;100723.91;4240832;33;35501;-85
2022/01/02 03:34:48;;;;;;;6.65;4.00;;;;;;;10.34;67.51;100729.28;4241792;33;34733;-85
2022/01/02 03:37:35;;;;;;;7.00;4.03;;;;;;;10.28;67.49;100725.03;4240694;33;33774;-84
2022/01/02 03:40:22;;;;;;;12.05;4.18;;;;;;;10.68;66.21;100729.16;4250361;33;34394;-85
2022/01/02 03:43:09;;;;;;;7.32;3.90;;;;;;;10.66;66.04;100721.28;4240867;33;34217;-83
2022/01/02 03:45:56;;;;;;;5.28;3.72;;;;;;;10.61;66.30;100725.00;4240425;33;35672;-83
2022/01/02 03:48:42;;;;;;;7.93;3.78;;;;;;;10.33;67.17;100717.84;4239684;33;34654;-85
2022/01/02 03:51:29;;;;;;;6.93;3.45;;;;;;;10.18;67.58;100710.31;4241089;33;34362;-82
2022/01/02 03:54:16;;;;;;;4.47;3.37;;;;;;;10.76;65.65;100706.91;4239790;33;34765;-84
2022/01/02 03:57:02;;;;;;;5.80;3.62;;;;;;;10.90;64.91;100716.19;4252103;33;35431;-83
2022/01/02 03:59:49;;;;;;;6.62;3.65;;;;;;;10.69;65.42;100734.44;4254033;33;34759;-83
2022/01/02 04:02:37;;;;;;;8.38;4.07;;;;;;;10.67;65.17;100722.16;4243602;33;34087;-85
2022/01/02 04:05:25;;;;;;;6.43;3.42;;;;;;;10.47;65.54;100720.97;4242831;33;34251;-84
2022/01/02 04:08:11;;;;;;;6.70;3.70;;;;;;;10.45;65.37;100725.44;4250556;33;34314;-85
2022/01/02 04:10:58;;;;;;;6.93;3.45;;;;;;;10.38;65.45;100728.28;4253124;33;35543;-85
2022/01/02 04:13:44;;;;;;;5.10;2.55;;;;;;;10.33;65.42;100728.41;4241456;33;34075;-82
2022/01/02 04:16:31;;;;;;;7.85;3.83;;;;;;;10.23;66.05;100727.75;4239983;33;33522;-84
2022/01/02 04:19:17;;;;;;;5.47;3.50;;;;;;;10.35;65.64;100731.87;4243869;33;34447;-85
2022/01/02 04:22:04;;;;;;;5.43;4.07;;;;;;;10.24;65.75;100728.66;4250550;33;35746;-85
2022/01/02 04:24:49;;;;;;;5.47;3.08;;;;;;;10.28;65.71;100726.81;4233106;33;34310;-85
2022/01/02 04:27:36;;;;;;;6.00;3.90;;;;;;;10.42;65.08;100722.88;4240179;33;34386;-84
2022/01/02 04:30:23;;;;;;;7.07;3.65;;;;;;;9.76;67.00;100731.66;4239091;33;34237;-85
2022/01/02 04:33:09;;;;;;;9.20;4.18;;;;;;;9.75;67.17;100733.44;4241679;33;35818;-85
2022/01/02 04:35:56;;;;;;;7.20;3.58;;;;;;;9.84;66.95;100734.97;4250617;33;34416;-84
2022/01/02 04:38:43;;;;;;;6.93;3.72;;;;;;;10.00;66.26;100736.28;4248460;33;34538;-84
2022/01/02 04:41:29;;;;;;;7.18;4.00;;;;;;;10.05;65.70;100727.41;4238803;33;34750;-84
2022/01/02 04:44:17;;;;;;;3.95;2.85;;;;;;;9.79;66.15;100739.50;4241294;33;34867;-84
2022/01/02 04:47:04;;;;;;;4.78;3.60;;;;;;;10.20;63.72;100745.44;4249527;33;34900;-85
2022/01/02 04:49:50;;;;;;;6.40;3.15;;;;;;;9.90;63.97;100734.81;4241111;33;34734;-85
2022/01/02 04:52:37;;;;;;;7.95;3.22;;;;;;;9.70;64.47;100737.09;4239756;33;34701;-86
2022/01/02 04:55:24;;;;;;;5.15;2.95;;;;;;;9.56;64.80;100740.06;4249622;33;34835;-86
2022/01/02 04:58:10;;;;;;;6.93;3.75;;;;;;;9.52;64.89;100732.28;4246873;33;35209;-85
2022/01/02 05:00:56;;;;;;;4.62;2.70;;;;;;;9.31;65.19;100729.25;4240077;33;35805;-86
2022/01/02 05:03:43;;;;;;;7.03;3.65;;;;;;;9.41;64.90;100728.13;4240187;33;34363;-85
2022/01/02 05:06:30;;;;;;;7.75;3.80;;;;;;;9.22;65.67;100726.84;4242347;33;35661;-84
2022/01/02 05:09:16;;;;;;;7.07;3.87;;;;;;;9.22;65.86;100732.13;4239481;33;34269;-86
2022/01/02 05:12:03;;;;;;;9.02;3.90;;;;;;;9.12;66.16;100727.97;4249588;33;34544;-86
2022/01/02 05:14:49;;;;;;;7.12;4.75;;;;;;;9.26;65.80;100720.59;4233809;33;34764;-85
2022/01/02 05:17:36;;;;;;;12.32;5.78;;;;;;;9.11;66.41;100718.31;4241035;33;35424;-85
2022/01/02 05:20:22;;;;;;;12.10;6.30;;;;;;;9.07;66.55;100711.37;4240253;33;34990;-84
2022/01/02 05:23:08;;;;;;;11.38;6.32;;;;;;;8.80;67.32;100715.50;4248832;33;35556;-84
2022/01/02 05:25:57;;;;;;;6.03;4.28;;;;;;;8.89;67.36;100715.31;4230236;33;34365;-84
2022/01/02 05:28:43;;;;;;;9.65;5.28;;;;;;;9.05;66.22;100714.03;4240175;33;34911;-85
2022/01/02 05:31:29;;;;;;;6.87;3.80;;;;;;;8.93;66.42;100715.19;4250168;33;34335;-84
2022/01/02 05:34:18;;;;;;;7.30;4.37;;;;;;;9.14;65.72;100721.75;4240841;33;34581;-84
2022/01/02 05:37:05;;;;;;;6.60;4.65;;;;;;;9.16;65.45;100716.41;4241113;33;34581;-84
2022/01/02 05:39:51;;;;;;;6.85;3.75;;;;;;;9.12;65.26;100723.56;4242902;33;34497;-85
2022/01/02 05:42:37;;;;;;;7.85;4.53;;;;;;;9.11;65.08;100713.03;4243075;33;34054;-84
2022/01/02 05:45:23;;;;;;;8.20;4.03;;;;;;;9.15;64.72;100706.78;4243694;33;35270;-84
2022/01/02 05:48:10;;;;;;;7.70;4.50;;;;;;;9.21;64.14;100706.66;4253107;33;34700;-84
2022/01/02 05:50:59;;;;;;;9.13;4.25;;;;;;;9.09;64.22;100699.91;4241611;33;34435;-84
2022/01/02 05:53:45;;;;;;;8.90;4.87;;;;;;;9.22;63.52;100704.00;4244569;33;34358;-84
2022/01/02 05:56:32;;;;;;;6.82;4.15;;;;;;;8.72;64.96;100698.09;4240535;33;34237;-84
2022/01/02 05:59:18;;;;;;;5.57;3.95;;;;;;;8.75;64.71;100697.16;4254965;33;34423;-84
2022/01/02 06:02:05;;;;;;;7.12;4.03;;;;;;;8.43;64.82;100701.34;4250361;33;35734;-84
2022/01/02 06:04:52;;;;;;;6.85;4.45;;;;;;;8.25;65.14;100699.03;4239901;33;34683;-85
2022/01/02 06:07:39;;;;;;;9.68;4.53;;;;;;;7.67;68.39;100697.50;4252650;33;35287;-85
2022/01/02 06:10:26;;;;;;;7.62;4.57;;;;;;;7.91;68.13;100702.31;4240377;33;36291;-84
2022/01/02 06:13:12;;;;;;;8.43;4.95;;;;;;;7.83;68.25;100696.34;4249466;33;34610;-85
2022/01/02 06:15:59;;;;;;;11.30;4.57;;;;;;;8.00;67.52;100701.28;4252014;33;34442;-85
2022/01/02 06:18:46;;;;;;;7.40;4.65;;;;;;;8.03;67.52;100706.50;4227771;33;34542;-86
2022/01/02 06:21:32;;;;;;;9.98;4.85;;;;;;;8.32;66.22;100695.41;4251587;33;34864;-86
2022/01/02 06:24:19;;;;;;;11.27;4.68;;;;;;;8.26;65.98;100697.28;4250985;33;34796;-86
2022/01/02 06:27:05;;;;;;;8.27;4.80;;;;;;;8.20;66.13;100701.75;4250791;33;35306;-86
2022/01/02 06:29:52;;;;;;;7.47;4.68;;;;;;;8.20;66.18;100703.53;4239691;33;34188;-85
2022/01/02 06:32:38;;;;;;;8.27;4.32;;;;;;;8.35;65.62;100697.97;4242322;33;33836;-85
2022/01/02 06:35:32;;;;;;;8.40;4.47;;;;;;;8.35;65.47;100700.59;4243654;33;35427;-84
2022/01/02 06:38:21;;;;;;;7.07;4.50;;;;;;;8.37;65.31;100701.47;4241590;33;34285;-84
2022/01/02 06:41:08;;;;;;;8.40;5.12;;;;;;;8.31;65.07;100717.38;4239881;33;34578;-84
2022/01/02 06:43:54;;;;;;;12.23;5.70;;;;;;;7.99;65.79;100709.22;4242416;33;34657;-85
2022/01/02 06:46:41;;;;;;;11.32;6.47;;;;;;;8.03;65.81;100709.13;4243120;33;34811;-84
2022/01/02 06:49:28;;;;;;;9.95;5.93;;;;;;;8.07;65.80;100705.56;4252334;33;33940;-84
2022/01/02 06:52:14;;;;;;;9.50;5.32;;;;;;;8.08;65.93;100709.03;4253307;33;35745;-84
2022/01/02 06:55:01;;;;;;;8.52;4.95;;;;;;;8.11;65.91;100708.97;4241336;33;33604;-84
2022/01/02 06:57:47;;;;;;;7.82;4.22;;;;;;;7.99;66.37;100710.06;4253663;33;34911;-84
2022/01/02 07:00:35;;;;;;;10.00;5.37;;;;;;;8.15;65.81;100702.75;4236998;33;33969;-83
2022/01/02 07:03:25;;;;;;;9.05;5.10;;;;;;;8.13;65.41;100713.31;4241782;33;34588;-84
2022/01/02 07:06:11;;;;;;;10.40;5.68;;;;;;;8.24;65.14;100705.22;4243215;33;35706;-84
2022/01/02 07:08:57;;;;;;;10.30;5.80;;;;;;;8.32;64.79;100716.47;4247412;33;34577;-84
2022/01/02 07:11:44;;;;;;;12.35;6.35;;;;;;;7.75;67.00;100721.03;4232685;33;34017;-84
2022/01/02 07:14:30;;;;;;;12.73;6.60;;;;;;;7.85;66.75;100726.09;4241822;33;35630;-84
2022/01/02 07:17:17;;;;;;;11.82;6.30;;;;;;;8.26;65.74;100718.31;4243110;33;35738;-84
2022/01/02 07:20:07;;;;;;;11.95;6.37;;;;;;;8.31;65.69;100712.09;4242543;33;33683;-84
2022/01/02 07:22:54;;;;;;;10.93;6.18;;;;;;;8.11;66.00;100709.81;4241004;33;34330;-84
2022/01/02 07:25:40;;;;;;;11.25;6.35;;;;;;;8.08;66.51;100724.81;4239704;33;35934;-84
2022/01/02 07:28:26;;;;;;;10.07;5.93;;;;;;;8.07;66.28;100733.59;4248721;33;35486;-84
2022/01/02 07:31:13;;;;;;;12.65;5.93;;;;;;;8.06;66.29;100723.97;4248167;33;34804;-84
2022/01/02 07:34:00;;;;;;;11.55;5.22;;;;;;;8.05;66.64;100716.97;4250436;33;34151;-84
2022/01/02 07:36:45;;;;;;;10.65;4.85;;;;;;;8.21;66.68;100721.94;4248110;33;35533;-84
2022/01/02 07:39:33;;;;;;;11.25;5.47;;;;;;;8.42;66.35;100720.66;4241606;33;34171;-84
2022/01/02 07:42:19;;;;;;;8.50;5.40;;;;;;;8.64;66.19;100709.69;4242294;33;36225;-84
2022/01/02 07:45:07;;;;;;;11.38;6.55;;;;;;;8.67;66.49;100699.97;4255222;33;34419;-84
2022/01/02 07:47:53;;;;;;;14.93;8.40;;;;;;;8.80;66.69;100697.94;4248802;33;34554;-83
2022/01/02 07:50:44;;;;;;;10.13;7.85;;;;;;;8.87;66.82;100704.78;4239651;33;35677;-84
2022/01/02 07:53:31;;;;;;;15.52;8.55;;;;;;;8.74;67.63;100700.72;4246445;33;34828;-84
2022/01/02 07:56:17;;;;;;;20.98;10.95;;;;;;;8.62;68.13;100711.50;4237228;33;35082;-85
2022/01/02 07:59:03;;;;;;;18.45;9.13;;;;;;;8.90;67.59;100707.34;4251299;33;34655;-84
2022/01/02 08:01:50;;;;;;;22.30;9.90;;;;;;;8.80;67.57;100700.56;4232579;33;35358;-85
2022/01/02 08:04:37;;;;;;;32.88;14.43;;;;;;;8.81;67.88;100701.44;4237811;33;37151;-85
2022/01/02 08:07:23;;;;;;;27.70;14.82;;;;;;;9.03;67.48;100701.81;4235454;33;34347;-85
2022/01/02 08:10:09;;;;;;;24.87;11.85;;;;;;;9.07;67.64;100692.91;4249687;33;34328;-84
2022/01/02 08:12:56;;;;;;;28.25;12.98;;;;;;;9.28;67.20;100681.03;4236624;33;35671;-85
2022/01/02 08:15:43;;;;;;;20.30;9.55;;;;;;;9.31;67.33;100676.56;4246388;33;34884;-85
2022/01/02 08:18:29;;;;;;;17.58;8.82;;;;;;;9.20;67.99;100673.28;4247326;33;34500;-85
2022/01/02 08:32:16;;;;;;;13.82;8.30;;;;;;;11.22;63.97;100667.63;4494196;31;115415;-88
2022/01/02 08:35:03;;;;;;;11.02;6.85;;;;;;;11.22;63.97;100667.63;4477229;32;33826;-87
2022/01/02 08:37:50;;;;;;;13.00;7.78;;;;;;;10.70;65.15;100662.19;4475273;32;34751;-87
2022/01/02 08:40:38;;;;;;;12.70;6.82;;;;;;;10.70;65.32;100664.84;4476826;32;34671;-87
2022/01/02 08:43:24;;;;;;;11.38;6.78;;;;;;;10.67;65.70;100664.06;4478739;32;32725;-87
2022/01/02 08:46:11;;;;;;;12.68;6.53;;;;;;;10.86;65.31;100665.22;4472761;32;32658;-87
2022/01/02 08:48:57;;;;;;;15.15;7.28;;;;;;;10.74;65.94;100655.03;4475506;32;35595;-87
2022/01/02 08:51:45;;;;;;;15.57;9.85;;;;;;;10.86;65.87;100648.50;4476278;32;34206;-87
2022/01/02 08:54:32;;;;;;;27.17;15.27;;;;;;;11.12;65.37;100645.91;4474123;32;34229;-88
2022/01/02 08:57:18;;;;;;;22.37;13.73;;;;;;;11.24;65.14;100655.19;4484764;31;34062;-84
2022/01/02 09:00:05;;;;;;;24.45;14.27;;;;;;;11.51;64.70;100651.63;4488347;31;34641;-87
2022/01/02 09:02:51;;;;;;;20.12;11.57;;;;;;;11.60;64.48;100646.97;4474999;31;34308;-85
2022/01/02 09:05:38;;;;;;;13.50;7.87;;;;;;;12.04;63.21;100635.69;4484119;32;35349;-86
2022/01/02 09:08:25;;;;;;;11.05;5.15;;;;;;;12.23;62.85;100627.06;4485646;31;34929;-86
2022/01/02 09:11:11;;;;;;;7.47;4.03;;;;;;;12.41;62.15;100626.38;4476781;32;34329;-83
2022/01/02 09:13:59;;;;;;;6.87;3.90;;;;;;;12.36;61.55;100627.47;4488040;31;35728;-85
2022/01/02 09:16:45;;;;;;;10.35;3.78;;;;;;;12.49;61.51;100626.09;4475246;32;34347;-87
2022/01/02 09:19:31;;;;;;;7.30;4.53;;;;;;;12.92;60.68;100622.63;4476285;32;32486;-86
2022/01/02 09:22:19;;;;;;;7.40;4.72;;;;;;;13.05;60.91;100622.97;4476884;32;33980;-86
2022/01/02 09:25:07;;;;;;;11.63;5.65;;;;;;;13.37;59.58;100623.47;4488861;32;34484;-83
2022/01/02 09:27:53;;;;;;;6.87;3.90;;;;;;;13.63;58.45;100615.28;4487000;31;34166;-84
2022/01/02 09:30:40;;;;;;;8.38;4.05;;;;;;;13.74;57.58;100609.50;4487785;31;33621;-84
2022/01/02 09:33:29;;;;;;;5.82;3.92;;;;;;;13.75;57.68;100608.56;4475853;32;34667;-83
2022/01/02 09:36:16;;;;;;;7.05;3.58;;;;;;;13.78;57.32;100609.28;4480460;32;35461;-85
2022/01/02 09:39:03;;;;;;;6.00;3.95;;;;;;;13.92;57.31;100621.94;4475638;32;33508;-85
2022/01/02 09:41:50;;;;;;;3.87;2.72;;;;;;;14.07;56.79;100613.28;4469317;32;33620;-85
2022/01/02 09:44:36;;;;;;;4.70;3.30;;;;;;;14.26;55.91;100601.84;4467494;32;32902;-85
2022/01/02 09:47:23;;;;;;;11.57;3.85;;;;;;;14.31;56.04;100584.75;4476609;32;35282;-85
2022/01/02 09:50:10;;;;;;;5.12;3.30;;;;;;;14.01;58.77;100579.06;4474195;32;32727;-85
2022/01/02 09:52:57;;;;;;;6.78;3.92;;;;;;;13.76;61.07;100579.28;4474636;32;34632;-84
2022/01/02 09:55:25;;;;;;;6.75;3.45;;;;;;;14.22;59.16;100563.91;4465739;32;32576;-86
2022/01/02 09:57:54;;;;;;;5.43;3.20;;;;;;;14.68;55.29;100558.25;4446370;32;32415;-84
2022/01/02 10:00:22;;;;;;;6.53;4.18;;;;;;;14.69;57.78;100552.00;4462434;31;33172;-85
2022/01/02 10:02:56;;;;;;;7.07;1.83;;;;;;;15.12;53.74;100537.44;4463515;31;33808;-85
2022/01/02 10:05:25;;;;;;;3.97;1.50;;;;;;;14.44;52.75;100545.19;4474963;31;33370;-85
2022/01/02 10:07:54;;;;;;;3.22;1.35;;;;;;;14.92;53.02;100543.75;4465375;32;32925;-85
2022/01/02 10:10:33;;;;;;;5.05;1.48;;;;;;;15.11;51.80;100541.87;4459430;31;33389;-85
2022/01/02 10:13:04;;;;;;;1.73;1.10;;;;;;;14.92;51.31;100540.25;4476815;31;33393;-85
2022/01/02 10:15:32;;;;;;;5.53;2.00;;;;;;;15.34;50.56;100531.87;4478388;31;33234;-85
2022/01/02 10:18:09;;;;;;;3.75;1.67;;;;;;;15.31;49.46;100529.38;4464604;31;32151;-84
2022/01/02 10:20:42;;;;;;;2.05;1.40;;;;;;;15.44;50.03;100543.75;4461681;32;34297;-84
2022/01/02 10:23:19;;;;;;;2.78;1.92;;;;;;;15.50;49.71;100532.78;4463472;32;31105;-85
2022/01/02 10:25:56;;;;;;;3.40;1.73;;;;;;;15.70;49.55;100522.91;4452421;32;34327;-85
2022/01/02 10:28:40;;;;;;;3.65;2.00;;;;;;;15.65;48.92;100515.19;4463651;31;33088;-85
2022/01/02 10:31:09;;;;;;;3.15;1.92;;;;;;;15.69;49.52;100511.41;4462560;32;33416;-85
2022/01/02 10:33:56;;;;;;;6.00;2.00;;;;;;;15.90;48.72;100497.87;4460660;32;34118;-86
2022/01/02 10:36:31;;;;;;;3.17;1.85;;;;;;;15.33;49.22;100503.53;4461282;31;32998;-86
2022/01/02 10:39:15;;;;;;;9.50;2.53;;;;;;;15.31;49.87;100484.13;4473659;32;33592;-85
2022/01/02 10:41:46;;;;;;;7.03;2.53;;;;;;;15.57;49.33;100472.97;4451148;32;32639;-86
2022/01/02 10:44:25;;;;;;;5.80;3.15;;;;;;;16.02;46.91;100471.44;4447995;32;31650;-85
2022/01/02 10:47:15;;;;;;;4.82;2.37;;;;;;;15.93;47.56;100482.59;4475370;31;33496;-86
2022/01/02 10:49:49;;;;;;;4.25;2.60;;;;;;;15.88;47.63;100479.31;4467177;32;33680;-86
2022/01/02 10:52:22;;;;;;;6.25;2.30;;;;;;;16.05;46.97;100473.09;4474221;31;33456;-86
2022/01/02 10:54:50;;;;;;;3.50;2.50;;;;;;;15.79;47.46;100478.03;4470196;31;32879;-86
2022/01/02 10:57:18;;;;;;;3.37;2.47;;;;;;;15.75;47.31;100460.50;4448584;32;33033;-85
2022/01/02 10:59:47;;;;;;;3.25;2.25;;;;;;;15.93;47.80;100453.28;4462232;32;33695;-85
2022/01/02 11:02:16;;;;;;;3.55;2.20;;;;;;;15.94;46.62;100452.34;4449695;32;33034;-87
2022/01/02 11:05:04;;;;;;;4.25;2.70;;;;;;;15.78;47.79;100456.81;4462058;32;32960;-87
2022/01/02 11:07:43;;;;;;;3.62;2.08;;;;;;;15.60;47.92;100461.28;4453755;31;33391;-86
2022/01/02 11:10:17;;;;;;;3.83;2.15;;;;;;;15.81;48.37;100451.34;4487636;31;33127;-87
2022/01/02 11:12:45;;;;;;;3.37;2.67;;;;;;;16.37;46.54;100444.59;4474666;31;34256;-87
2022/01/02 11:15:33;;;;;;;5.32;2.72;;;;;;;15.80;46.96;100438.94;4461528;32;33000;-86
2022/01/02 11:18:01;;;;;;;5.18;2.83;;;;;;;15.85;47.95;100431.53;4460166;32;33645;-88
2022/01/02 11:20:33;;;;;;;8.30;2.83;;;;;;;16.27;47.39;100430.94;4460843;32;33718;-87
2022/01/02 11:23:22;;;;;;;5.12;2.60;;;;;;;15.98;48.35;100427.25;4472913;32;34333;-87
2022/01/02 11:26:28;;;;;;;6.57;3.20;;;;;;;15.94;48.15;100430.19;4476894;32;32179;-87
2022/01/02 11:29:15;;;;;;;4.75;2.25;;;;;;;16.10;48.44;100423.06;4465892;32;34605;-87
2022/01/02 11:31:46;;;;;;;3.70;2.50;;;;;;;15.68;49.35;100405.00;4449259;31;32417;-87
2022/01/02 11:34:23;;;;;;;3.17;2.67;;;;;;;16.23;48.22;100401.88;4474131;31;32415;-87
2022/01/02 11:36:54;;;;;;;9.75;3.33;;;;;;;16.04;48.10;100394.94;4472629;32;32593;-87
2022/01/02 11:39:22;;;;;;;3.47;2.50;;;;;;;15.62;49.56;100399.06;4448137;32;32929;-86
2022/01/02 11:41:51;;;;;;;9.18;2.55;;;;;;;16.12;48.08;100395.38;4463143;32;32603;-87
2022/01/02 11:44:26;;;;;;;5.20;2.55;;;;;;;16.12;49.00;100382.06;4476363;32;33495;-86
2022/01/02 11:46:58;;;;;;;4.28;2.28;;;;;;;16.38;48.65;100379.72;4449116;32;32195;-87
2022/01/02 11:49:41;;;;;;;3.65;2.53;;;;;;;16.24;47.97;100372.50;4472064;32;33247;-87
2022/01/02 11:52:19;;;;;;;4.37;2.10;;;;;;;15.47;49.78;100375.91;4474490;31;33757;-86
2022/01/02 11:54:51;;;;;;;2.83;1.77;;;;;;;15.98;48.85;100373.13;4447622;32;32852;-87
2022/01/02 11:57:23;;;;;;;4.03;2.20;;;;;;;15.36;50.29;100368.53;4462322;32;33267;-87
2022/01/02 11:59:52;;;;;;;3.92;2.55;;;;;;;15.66;49.33;100361.63;4474415;32;33556;-86
2022/01/02 12:02:25;;;;;;;3.00;2.22;;;;;;;15.51;49.41;100356.19;4461247;32;32899;-87
2022/01/02 12:04:57;;;;;;;3.78;2.03;;;;;;;15.90;48.78;100360.25;4471173;32;33360;-89
2022/01/02 12:07:40;;;;;;;3.08;2.37;;;;;;;15.62;49.13;100356.47;4468296;32;32007;-91
2022/01/02 12:10:14;;;;;;;4.37;2.40;;;;;;;15.45;50.32;100343.22;4463001;32;33935;-87
2022/01/02 12:13:00;;;;;;;5.28;2.40;;;;;;;15.30;50.58;100349.37;4475062;31;34055;-87
2022/01/02 12:15:34;;;;;;;5.95;3.35;;;;;;;15.04;50.85;100340.12;4460991;32;32352;-87
2022/01/02 12:18:15;;;;;;;5.47;2.67;;;;;;;14.81;51.53;100336.94;4470095;32;33811;-87
2022/01/02 12:20:52;;;;;;;6.15;2.78;;;;;;;14.49;52.66;100335.94;4477860;32;34649;-87
2022/01/02 12:23:32;;;;;;;3.72;2.62;;;;;;;14.79;51.74;100328.16;4471408;32;33524;-87
2022/01/02 12:26:01;;;;;;;7.68;2.92;;;;;;;14.97;51.53;100321.00;4473898;32;32211;-87
2022/01/02 12:28:37;;;;;;;5.53;2.50;;;;;;;14.82;51.87;100313.84;4458742;32;33477;-86
2022/01/02 12:31:08;;;;;;;2.70;2.00;;;;;;;14.67;52.25;100301.34;4448454;32;33872;-87
2022/01/02 12:33:37;;;;;;;3.33;2.80;;;;;;;15.20;51.38;100305.63;4472454;31;33703;-90
2022/01/02 12:36:11;;;;;;;7.78;2.97;;;;;;;15.33;51.17;100301.31;4452543;32;33638;-86
2022/01/02 12:39:05;;;;;;;4.97;3.15;;;;;;;15.72;50.39;100290.28;4459573;32;32338;-87
2022/01/02 12:41:36;;;;;;;5.62;3.72;;;;;;;16.12;49.02;100290.63;4460165;32;33622;-87
2022/01/02 12:44:06;;;;;;;6.70;3.92;;;;;;;16.05;49.89;100283.94;4450745;32;33357;-87
2022/01/02 12:46:42;;;;;;;9.52;4.10;;;;;;;15.67;50.66;100283.50;4471813;32;34576;-87
2022/01/02 12:49:19;;;;;;;4.82;3.60;;;;;;;15.61;50.84;100296.16;4451242;31;32582;-87
2022/01/02 12:51:52;;;;;;;6.18;3.83;;;;;;;15.90;49.85;100290.16;4474472;32;33135;-87
2022/01/02 12:54:23;;;;;;;6.75;3.67;;;;;;;16.03;49.72;100294.69;4449207;32;33962;-87
2022/01/02 12:56:55;;;;;;;6.00;3.30;;;;;;;15.53;51.12;100290.44;4474784;32;33561;-87
2022/01/02 12:59:30;;;;;;;8.20;3.28;;;;;;;15.86;50.16;100289.50;4469816;32;32982;-87
2022/01/02 13:02:04;;;;;;;6.22;3.75;;;;;;;15.86;50.78;100285.03;4479633;31;33506;-87
2022/01/02 13:04:40;;;;;;;7.60;3.45;;;;;;;16.12;50.26;100280.81;4458002;32;32851;-87